This is the latest recevied weather packets stored in our database for station/object W2SRH. If no packets are shown the sender has not sent any weather packets the latest 10 day(s).
| Time | Temp. | Humidity | Pressure | Rain* | Wind** | Luminosity | Snow |
|---|---|---|---|---|---|---|---|
| 1777748344 | 15.56° C | 32% | 1003 hPa | 0 mm | 2.24 m/s, 299° | - | - |
| 1777747743 | 16.11° C | 31% | 1003.1 hPa | 0 mm | 0.89 m/s, 18° | - | - |
| 1777747144 | 14.44° C | 36% | 1003.2 hPa | 0 mm | 0.45 m/s, 31° | - | - |
| 1777746543 | 14.44° C | 36% | 1003.3 hPa | 0 mm | 1.79 m/s, 42° | - | - |
| 1777745946 | 15° C | 33% | 1003.1 hPa | 0 mm | 0.89 m/s, 328° | - | - |
| 1777745344 | 14.44° C | 33% | 1003.2 hPa | 0 mm | 0.45 m/s, 326° | - | - |
| 1777744746 | 14.44° C | 36% | 1003.3 hPa | 0 mm | 0.45 m/s, 35° | - | - |
| 1777744144 | 14.44° C | 35% | 1003.4 hPa | 0 mm | 1.79 m/s, 15° | - | - |
| 1777743544 | 14.44° C | 34% | 1003.5 hPa | 0 mm | 1.34 m/s, 3° | - | - |
| 1777742943 | 14.44° C | 38% | 1003.4 hPa | 0 mm | 0.45 m/s, 352° | - | - |
| 1777742343 | 13.89° C | 41% | 1003.4 hPa | 0 mm | 0.89 m/s, 22° | - | - |
| 1777741743 | 14.44° C | 41% | 1003.5 hPa | 0 mm | 0.89 m/s, 348° | - | - |
| 1777741143 | 13.89° C | 42% | 1003.7 hPa | 0 mm | 0.89 m/s, 316° | - | - |
| 1777740545 | 13.33° C | 45% | 1003.8 hPa | 0 mm | 0.89 m/s, 6° | - | - |
| 1777739948 | 13.33° C | 46% | 1004 hPa | 0 mm | 1.34 m/s, 349° | - | - |
| 1777739344 | 13.33° C | 48% | 1004.2 hPa | 0 mm | 1.34 m/s, 347° | - | - |
| 1777738749 | 13.33° C | 49% | 1004.3 hPa | 0 mm | 0.89 m/s, 331° | - | - |
| 1777737544 | 12.78° C | 54% | 1004.3 hPa | 0 mm | 1.34 m/s, 303° | - | - |
| 1777736954 | 12.78° C | 55% | 1004.1 hPa | 0 mm | 0.89 m/s, 342° | - | - |
| 1777736346 | 12.22° C | 55% | 1004.1 hPa | 0 mm | 0.89 m/s, 322° | - | - |
| 1777735745 | 12.78° C | 55% | 1004.2 hPa | 0 mm | 0.89 m/s, 1° | - | - |
| 1777735143 | 12.78° C | 54% | 1004.2 hPa | 0 mm | 1.34 m/s, 328° | - | - |
| 1777734543 | 12.22° C | 58% | 1004.1 hPa | 0 mm | 1.34 m/s, 325° | - | - |
| 1777733944 | 11.67° C | 60% | 1004.2 hPa | 0 mm | 1.79 m/s, 332° | - | - |
| 1777733344 | 11.11° C | 62% | 1004.1 hPa | 0 mm | 2.24 m/s, 314° | - | - |
* Rain latest hour (hover to see other rain measurements)
** Current wind speed in m/s (hover to see current wind gust speed)